Time;durP1;ratioP1;P1;durP2;ratioP2;P2;SDS_P1;SDS_P2;PMS_P1;PMS_P2;Temp;Humidity;BMP_temperature;BMP_pressure;BME280_temperature;BME280_humidity;BME280_pressure;Samples;Min_cycle;Max_cycle;Signal;HPM_P1;HPM_P2
2021/10/03 00:00:49;;;;;;;2.05;1.50;;;;;;;16.02;61.88;93051.59;5072466;28;20207;-78
2021/10/03 00:03:18;;;;;;;4.72;1.50;;;;;;;16.15;61.23;93045.91;5071746;28;20215;-78
2021/10/03 00:05:47;;;;;;;2.33;1.50;;;;;;;16.15;60.74;93050.38;5071748;28;20253;-77
2021/10/03 00:08:15;;;;;;;4.38;1.40;;;;;;;16.06;60.16;93047.44;5072487;28;20199;-78
2021/10/03 00:10:42;;;;;;;1.85;1.45;;;;;;;16.15;60.16;93053.03;5071945;28;20728;-78
2021/10/03 00:13:10;;;;;;;4.30;1.70;;;;;;;16.03;60.38;93053.19;5072384;28;20203;-77
2021/10/03 00:15:38;;;;;;;6.47;1.60;;;;;;;16.13;60.22;93060.38;5072170;28;20233;-78
2021/10/03 00:18:05;;;;;;;2.42;1.40;;;;;;;16.27;59.79;93043.91;5065270;28;20199;-78
2021/10/03 00:20:32;;;;;;;1.75;1.15;;;;;;;16.21;60.46;93044.13;5052412;28;20203;-78
2021/10/03 00:22:58;;;;;;;2.45;1.50;;;;;;;16.27;59.75;93051.78;5052103;28;20237;-77
2021/10/03 00:25:28;;;;;;;5.05;1.50;;;;;;;16.25;60.20;93051.25;5052198;28;20234;-77
2021/10/03 00:27:55;;;;;;;1.73;1.33;;;;;;;16.15;60.00;93053.81;5069557;28;20688;-77
2021/10/03 00:30:23;;;;;;;6.00;1.42;;;;;;;16.23;60.14;93060.44;5075403;28;20195;-77
2021/10/03 00:32:50;;;;;;;4.07;1.58;;;;;;;16.22;59.76;93059.66;5076084;28;20252;-76
2021/10/03 00:35:18;;;;;;;3.42;1.40;;;;;;;16.31;60.77;93048.66;5075915;28;20229;-77
2021/10/03 00:37:44;;;;;;;4.22;1.48;;;;;;;16.24;60.18;93048.88;5075586;28;20683;-77
2021/10/03 00:40:12;;;;;;;5.10;1.48;;;;;;;16.43;58.74;93052.66;5075726;28;20202;-77
2021/10/03 00:42:41;;;;;;;1.70;1.23;;;;;;;16.49;59.90;93048.25;5075458;28;20199;-78
2021/10/03 00:45:11;;;;;;;3.05;1.48;;;;;;;16.52;58.34;93037.19;5075657;28;20219;-78
2021/10/03 00:47:37;;;;;;;2.03;1.10;;;;;;;16.60;59.34;93042.00;5075637;28;20202;-77
2021/10/03 00:50:06;;;;;;;5.40;1.40;;;;;;;16.46;59.13;93041.63;5075505;28;20608;-77
2021/10/03 00:52:32;;;;;;;3.05;1.50;;;;;;;16.52;59.17;93039.03;5075480;28;20225;-77
2021/10/03 00:54:58;;;;;;;1.85;1.30;;;;;;;16.48;58.96;93043.22;5075311;28;20203;-77
2021/10/03 00:57:25;;;;;;;2.08;1.38;;;;;;;16.56;58.63;93024.31;5075313;28;20214;-77
2021/10/03 00:59:53;;;;;;;6.15;1.55;;;;;;;16.51;58.73;93027.69;5075486;28;20203;-77
2021/10/03 01:02:20;;;;;;;2.67;1.30;;;;;;;16.57;58.16;93020.59;5075372;28;20230;-77
2021/10/03 01:04:47;;;;;;;4.13;1.40;;;;;;;16.56;59.44;93022.44;5075073;28;20585;-77
2021/10/03 01:07:14;;;;;;;2.17;1.50;;;;;;;16.58;59.88;93027.47;5074845;28;20237;-76
2021/10/03 01:09:40;;;;;;;2.50;1.33;;;;;;;16.51;58.33;93027.69;5074121;28;20199;-77
2021/10/03 01:12:07;;;;;;;1.95;1.25;;;;;;;16.64;57.92;93024.59;5075259;28;20202;-77
2021/10/03 01:14:34;;;;;;;4.47;1.58;;;;;;;16.65;59.01;93012.22;5074902;28;20675;-78
2021/10/03 01:17:01;;;;;;;1.65;1.40;;;;;;;16.55;58.83;93017.44;5075132;28;20636;-77
2021/10/03 01:19:28;;;;;;;3.53;1.55;;;;;;;16.61;58.49;93001.38;5074935;28;20195;-77
2021/10/03 01:21:56;;;;;;;2.60;1.48;;;;;;;16.58;60.01;93003.75;5074699;28;20235;-77
2021/10/03 01:24:22;;;;;;;2.05;1.48;;;;;;;16.59;58.55;93008.75;5074696;28;20562;-77
2021/10/03 01:26:49;;;;;;;1.58;1.10;;;;;;;16.77;55.74;93002.25;5074943;28;20580;-78
2021/10/03 01:29:15;;;;;;;1.77;1.60;;;;;;;16.72;56.32;93001.44;5074855;28;20294;-77
2021/10/03 01:31:42;;;;;;;2.13;1.50;;;;;;;16.61;57.63;92996.13;5074785;28;20199;-77
2021/10/03 01:34:09;;;;;;;3.20;1.23;;;;;;;16.55;57.72;92997.13;5074760;28;20608;-77
2021/10/03 01:36:36;;;;;;;2.47;1.48;;;;;;;16.50;58.48;92991.84;5073854;28;20445;-78
2021/10/03 01:39:04;;;;;;;14.90;1.77;;;;;;;16.59;58.96;92982.41;5074444;28;20203;-78
2021/10/03 01:41:31;;;;;;;1.65;1.27;;;;;;;16.64;57.28;92990.34;5074702;28;20199;-77
2021/10/03 01:43:58;;;;;;;3.97;1.70;;;;;;;16.55;57.22;92981.31;5074321;28;20194;-77
2021/10/03 01:46:24;;;;;;;3.47;1.30;;;;;;;16.66;56.44;92982.16;5074422;28;20238;-77
2021/10/03 01:48:51;;;;;;;3.38;1.20;;;;;;;16.68;58.29;92977.44;5074331;28;20289;-77
2021/10/03 01:51:18;;;;;;;2.10;1.30;;;;;;;16.54;60.43;92985.03;5074232;28;20199;-77
2021/10/03 01:53:47;;;;;;;4.03;1.50;;;;;;;16.60;59.58;92977.91;5074446;28;20206;-78
2021/10/03 01:56:15;;;;;;;3.17;1.52;;;;;;;16.57;57.96;92979.25;5074367;28;20206;-77
2021/10/03 01:58:44;;;;;;;2.80;1.50;;;;;;;16.59;58.13;92969.22;5074288;28;20202;-77
2021/10/03 02:01:15;;;;;;;3.20;1.50;;;;;;;16.68;57.42;92980.06;5074019;28;20202;-76
2021/10/03 02:03:42;;;;;;;3.88;1.67;;;;;;;16.74;58.21;92973.00;5073559;28;20669;-77
2021/10/03 02:06:08;;;;;;;3.75;1.48;;;;;;;16.56;60.06;92967.09;5073944;28;20576;-76
2021/10/03 02:08:35;;;;;;;3.13;1.35;;;;;;;16.56;58.89;92969.75;5074119;28;20204;-78
2021/10/03 02:11:02;;;;;;;2.78;1.50;;;;;;;16.60;58.61;92960.28;5074059;28;20205;-78
2021/10/03 02:13:31;;;;;;;2.10;1.42;;;;;;;16.72;57.51;92964.53;5072983;28;20199;-78
2021/10/03 02:16:01;;;;;;;9.38;1.35;;;;;;;16.63;57.62;92972.91;5073277;28;20560;-78
2021/10/03 02:18:33;;;;;;;5.35;1.90;;;;;;;16.59;58.69;92966.59;5073569;28;20203;-78
2021/10/03 02:21:00;;;;;;;3.65;1.60;;;;;;;16.56;58.91;92951.28;5073718;28;20206;-78
2021/10/03 02:23:26;;;;;;;1.67;1.33;;;;;;;16.62;59.60;92960.00;5073857;28;20199;-77
2021/10/03 02:25:53;;;;;;;3.65;1.60;;;;;;;16.57;58.48;92962.63;5073672;28;20227;-78
2021/10/03 02:28:22;;;;;;;3.80;1.40;;;;;;;16.55;58.64;92954.97;5073672;28;20203;-77
2021/10/03 02:30:53;;;;;;;3.78;1.58;;;;;;;16.60;59.34;92947.13;5073539;28;20224;-78
2021/10/03 02:33:20;;;;;;;3.38;1.60;;;;;;;16.43;59.70;92946.50;5073483;28;20289;-78
2021/10/03 02:35:49;;;;;;;5.15;1.65;;;;;;;16.39;59.44;92951.50;5073533;28;20210;-78
2021/10/03 02:38:18;;;;;;;3.25;1.40;;;;;;;16.34;59.46;92935.66;5073533;28;20226;-77
2021/10/03 02:40:46;;;;;;;1.60;1.10;;;;;;;16.35;60.31;92937.22;5073427;28;20214;-78
2021/10/03 02:43:16;;;;;;;3.47;1.48;;;;;;;16.45;57.89;92934.66;5073366;28;20200;-77
2021/10/03 02:45:45;;;;;;;1.73;1.60;;;;;;;16.53;58.91;92925.44;5073151;28;20234;-77
2021/10/03 02:48:13;;;;;;;1.85;1.10;;;;;;;16.61;57.74;92937.34;5073399;28;20198;-78
2021/10/03 02:50:40;;;;;;;3.20;1.75;;;;;;;16.68;56.56;92934.47;5073284;28;20252;-77
2021/10/03 02:53:09;;;;;;;2.13;1.50;;;;;;;16.49;59.15;92924.41;5072793;28;20589;-79
2021/10/03 02:55:37;;;;;;;2.25;1.63;;;;;;;16.33;59.95;92925.38;5073078;28;20199;-78
2021/10/03 02:58:04;;;;;;;1.90;1.25;;;;;;;16.35;58.27;92925.91;5072801;28;20214;-77
2021/10/03 03:00:32;;;;;;;2.00;1.40;;;;;;;16.36;59.06;92919.59;5073355;28;20206;-77
2021/10/03 03:02:58;;;;;;;3.50;1.88;;;;;;;16.37;58.69;92905.38;5073124;28;20203;-78
2021/10/03 03:05:33;;;;;;;2.45;1.50;;;;;;;16.33;59.92;92914.84;5073054;28;20209;-78
2021/10/03 03:08:03;;;;;;;5.65;2.45;;;;;;;16.22;60.27;92914.81;5072665;28;20198;-77
2021/10/03 03:10:33;;;;;;;3.00;1.83;;;;;;;16.42;58.98;92910.66;5072904;28;20213;-77
2021/10/03 03:13:01;;;;;;;3.63;1.60;;;;;;;16.36;59.21;92920.38;5073116;28;20214;-77
2021/10/03 03:15:28;;;;;;;3.28;1.40;;;;;;;16.20;62.80;92903.72;5072998;28;20320;-77
2021/10/03 03:17:57;;;;;;;2.08;1.40;;;;;;;16.38;59.82;92906.97;5073077;28;20237;-76
2021/10/03 03:20:23;;;;;;;2.95;1.40;;;;;;;16.45;58.70;92907.50;5071797;28;20206;-78
2021/10/03 03:22:55;;;;;;;3.45;1.38;;;;;;;16.57;57.45;92905.47;5072278;28;20230;-77
2021/10/03 03:25:25;;;;;;;6.47;1.35;;;;;;;16.58;58.98;92891.22;5072733;28;20203;-77
2021/10/03 03:27:51;;;;;;;5.72;1.75;;;;;;;16.45;60.11;92887.25;5068370;28;20227;-77
2021/10/03 03:30:18;;;;;;;2.30;1.60;;;;;;;16.37;59.60;92882.47;5071926;28;20206;-76
2021/10/03 03:32:45;;;;;;;5.57;1.77;;;;;;;16.61;59.02;92887.28;5072402;28;20205;-77
2021/10/03 03:35:12;;;;;;;3.50;1.50;;;;;;;16.51;59.43;92890.66;5071744;28;20680;-77
2021/10/03 03:37:38;;;;;;;6.30;1.60;;;;;;;16.55;59.43;92904.13;5072038;28;20215;-77
2021/10/03 03:40:11;;;;;;;2.40;1.65;;;;;;;16.51;59.73;92890.66;5072187;28;20195;-78
2021/10/03 03:42:38;;;;;;;1.75;1.35;;;;;;;16.48;59.96;92893.81;5072137;28;20202;-77
2021/10/03 03:45:06;;;;;;;2.10;1.58;;;;;;;16.54;59.91;92895.44;5072674;28;20234;-77
2021/10/03 03:47:33;;;;;;;2.17;1.55;;;;;;;16.53;58.59;92887.78;5072536;28;20238;-78
2021/10/03 03:49:59;;;;;;;1.92;1.20;;;;;;;16.68;58.79;92887.81;5072485;28;20210;-77
2021/10/03 03:52:26;;;;;;;2.10;1.50;;;;;;;16.71;58.31;92881.25;5072484;28;20205;-77
2021/10/03 03:54:53;;;;;;;1.73;1.40;;;;;;;16.71;59.02;92881.25;5072703;28;20205;-77
2021/10/03 03:57:20;;;;;;;4.70;1.83;;;;;;;16.68;58.47;92881.75;5072630;28;20203;-77
2021/10/03 03:59:47;;;;;;;5.47;1.65;;;;;;;16.79;57.44;92876.25;5072444;28;20531;-77
2021/10/03 04:02:15;;;;;;;2.15;1.38;;;;;;;16.92;56.99;92879.44;5072455;28;20201;-77
2021/10/03 04:04:46;;;;;;;4.00;1.60;;;;;;;17.08;57.46;92883.69;5074501;28;20230;-77
2021/10/03 04:07:12;;;;;;;3.65;1.40;;;;;;;16.93;58.37;92876.56;5076459;28;20287;-77
2021/10/03 04:09:39;;;;;;;2.13;1.40;;;;;;;16.83;58.32;92866.75;5075832;28;20680;-78
2021/10/03 04:12:06;;;;;;;2.88;1.50;;;;;;;16.83;57.96;92876.50;5075990;28;20218;-77
2021/10/03 04:14:34;;;;;;;3.95;1.42;;;;;;;16.62;58.34;92867.75;5075221;28;20209;-77
2021/10/03 04:17:00;;;;;;;2.63;1.70;;;;;;;16.61;59.75;92866.97;5075960;28;20195;-78
2021/10/03 04:19:27;;;;;;;2.97;1.58;;;;;;;16.76;57.81;92875.97;5075982;28;20202;-77
2021/10/03 04:21:53;;;;;;;3.08;1.75;;;;;;;16.61;59.61;92877.53;5075537;28;20238;-77
2021/10/03 04:24:19;;;;;;;2.83;1.83;;;;;;;16.50;60.84;92870.63;5075782;28;20199;-77
2021/10/03 04:26:46;;;;;;;2.33;1.50;;;;;;;16.56;59.25;92877.50;5075813;28;20265;-76
2021/10/03 04:29:13;;;;;;;2.25;1.60;;;;;;;16.48;59.43;92872.75;5076124;28;20628;-77
2021/10/03 04:31:40;;;;;;;2.95;1.70;;;;;;;16.51;59.22;92874.09;5075818;28;20202;-77
2021/10/03 04:34:08;;;;;;;3.35;1.73;;;;;;;16.49;60.82;92871.69;5075754;28;20202;-76
2021/10/03 04:36:35;;;;;;;2.55;1.75;;;;;;;16.46;59.70;92874.84;5075682;28;20677;-78
2021/10/03 04:39:01;;;;;;;1.42;1.33;;;;;;;16.51;58.63;92877.50;5075761;28;20199;-78
2021/10/03 04:41:28;;;;;;;6.05;1.58;;;;;;;16.46;59.73;92872.22;5075786;28;20289;-78
2021/10/03 04:43:54;;;;;;;2.08;1.38;;;;;;;16.54;60.09;92869.06;5075617;28;20661;-78
2021/10/03 04:46:21;;;;;;;1.80;1.45;;;;;;;16.50;60.07;92873.25;5075423;28;20222;-78
2021/10/03 04:48:49;;;;;;;1.75;1.35;;;;;;;16.48;59.96;92874.59;5075477;28;20650;-77
2021/10/03 04:51:15;;;;;;;2.60;1.40;;;;;;;16.51;59.80;92868.81;5075625;28;20225;-76
2021/10/03 04:53:42;;;;;;;2.10;1.58;;;;;;;16.52;59.68;92870.38;5075720;28;20202;-78
2021/10/03 04:56:09;;;;;;;3.83;1.45;;;;;;;16.50;59.73;92875.13;5075483;28;20289;-77
2021/10/03 04:58:35;;;;;;;2.72;1.45;;;;;;;16.44;60.87;92872.47;5075433;28;20202;-77
2021/10/03 05:01:02;;;;;;;2.03;1.20;;;;;;;16.46;59.98;92888.03;5075169;28;20653;-77
2021/10/03 05:03:30;;;;;;;2.35;1.50;;;;;;;16.38;62.19;92880.63;5075561;28;20241;-76
2021/10/03 05:05:58;;;;;;;3.78;1.30;;;;;;;16.27;62.75;92872.69;5075378;28;20207;-76
2021/10/03 05:08:24;;;;;;;2.50;1.30;;;;;;;16.51;59.73;92885.41;5075171;28;20227;-77
2021/10/03 05:10:51;;;;;;;2.97;1.52;;;;;;;16.70;58.29;92877.00;5074814;28;20206;-78
2021/10/03 05:13:17;;;;;;;2.72;1.63;;;;;;;16.70;59.23;92875.16;5074980;28;20214;-77
2021/10/03 05:15:44;;;;;;;4.35;1.60;;;;;;;16.52;60.84;92867.75;5074906;28;20226;-77
2021/10/03 05:18:10;;;;;;;2.22;1.45;;;;;;;16.35;62.07;92873.22;5075308;28;20213;-78
2021/10/03 05:20:37;;;;;;;7.80;1.52;;;;;;;16.30;63.20;92878.47;5075116;28;20210;-78
2021/10/03 05:23:05;;;;;;;3.97;1.50;;;;;;;16.39;60.86;92866.41;5074982;28;20589;-77
2021/10/03 05:25:32;;;;;;;2.35;1.50;;;;;;;16.50;61.47;92856.69;5074889;28;20194;-77
2021/10/03 05:27:59;;;;;;;1.88;1.42;;;;;;;16.53;61.48;92866.69;5074607;28;20322;-77
2021/10/03 05:30:25;;;;;;;2.70;1.50;;;;;;;16.57;61.19;92862.47;5074961;28;20205;-76
2021/10/03 05:32:52;;;;;;;2.22;1.70;;;;;;;16.50;61.02;92856.69;5074901;28;20207;-78
2021/10/03 05:35:19;;;;;;;3.13;1.42;;;;;;;16.55;61.11;92860.09;5073225;28;20230;-78
2021/10/03 05:37:46;;;;;;;4.32;1.60;;;;;;;16.39;62.37;92850.59;5074698;28;20248;-77
2021/10/03 05:40:13;;;;;;;5.25;1.33;;;;;;;16.53;62.00;92853.53;5074569;28;20204;-77
2021/10/03 05:42:40;;;;;;;2.08;1.40;;;;;;;16.64;62.32;92860.41;5074461;28;20203;-77
2021/10/03 05:45:08;;;;;;;1.55;1.20;;;;;;;16.78;61.03;92863.31;5074640;28;20198;-78
2021/10/03 05:47:34;;;;;;;1.90;1.40;;;;;;;16.86;59.83;92870.75;5074619;28;20238;-78
2021/10/03 05:50:01;;;;;;;2.25;1.40;;;;;;;16.83;61.43;92865.97;5074475;28;20202;-78
2021/10/03 05:52:27;;;;;;;2.55;1.48;;;;;;;16.69;62.60;92870.97;5074389;28;20199;-78
2021/10/03 05:54:54;;;;;;;1.27;1.17;;;;;;;16.71;62.45;92854.88;5074232;28;20739;-78
2021/10/03 05:57:22;;;;;;;1.83;1.48;;;;;;;16.68;62.54;92858.03;5074158;28;20593;-78
2021/10/03 05:59:48;;;;;;;2.70;1.48;;;;;;;16.71;61.88;92865.44;5074311;28;20195;-78
2021/10/03 06:02:14;;;;;;;2.10;1.33;;;;;;;16.71;61.53;92860.16;5074183;28;20244;-78
2021/10/03 06:04:41;;;;;;;4.57;1.45;;;;;;;16.75;59.91;92864.66;5074173;28;20195;-77
2021/10/03 06:07:07;;;;;;;2.88;1.42;;;;;;;16.98;59.56;92850.19;5073366;28;20233;-79
2021/10/03 06:09:34;;;;;;;4.15;1.35;;;;;;;16.99;59.73;92851.78;5073949;28;20248;-78
2021/10/03 06:12:00;;;;;;;4.35;1.50;;;;;;;17.09;60.44;92866.81;5073886;28;20569;-79
2021/10/03 06:14:28;;;;;;;2.60;1.40;;;;;;;17.22;60.33;92878.72;5073931;28;20606;-78
2021/10/03 06:16:55;;;;;;;1.75;1.20;;;;;;;17.28;59.12;92872.34;5074028;28;20225;-79
2021/10/03 06:19:21;;;;;;;2.53;1.40;;;;;;;17.31;60.26;92868.41;5073975;28;20248;-77
2021/10/03 06:21:48;;;;;;;3.13;1.65;;;;;;;17.23;61.01;92877.63;5073619;28;20226;-77
2021/10/03 06:24:18;;;;;;;2.88;1.35;;;;;;;17.35;58.56;92870.25;5073417;28;20442;-78
2021/10/03 06:26:47;;;;;;;1.85;1.25;;;;;;;17.40;60.21;92880.00;5073385;28;20202;-78
2021/10/03 06:29:14;;;;;;;2.63;1.52;;;;;;;17.45;60.94;92879.22;5073709;28;20624;-79
2021/10/03 06:31:42;;;;;;;2.80;1.33;;;;;;;17.46;59.77;92883.44;5073590;28;20203;-77
2021/10/03 06:34:09;;;;;;;1.73;1.40;;;;;;;17.56;59.15;92878.16;5073524;28;20206;-78
2021/10/03 06:36:35;;;;;;;3.35;1.55;;;;;;;17.63;60.84;92875.25;5073478;28;20209;-77
2021/10/03 06:39:02;;;;;;;1.55;1.20;;;;;;;17.62;60.67;92871.00;5072651;28;20661;-79
2021/10/03 06:41:28;;;;;;;5.40;1.90;;;;;;;17.61;59.67;92880.78;5073216;28;20203;-78
2021/10/03 06:43:55;;;;;;;2.47;1.23;;;;;;;17.57;60.02;92866.56;5073520;28;20207;-77
2021/10/03 06:46:21;;;;;;;6.38;1.30;;;;;;;17.57;59.51;92869.97;5073468;28;20281;-77
2021/10/03 06:48:49;;;;;;;3.20;1.38;;;;;;;17.53;62.42;92881.31;5073281;28;20284;-78
2021/10/03 06:51:16;;;;;;;3.28;1.58;;;;;;;17.45;62.44;92885.28;5073173;28;20202;-78
2021/10/03 06:53:43;;;;;;;1.65;1.42;;;;;;;17.33;63.02;92875.00;5073458;28;20206;-76
2021/10/03 06:56:09;;;;;;;2.55;1.20;;;;;;;17.42;60.76;92870.00;5073396;28;20205;-76
2021/10/03 06:58:36;;;;;;;2.17;1.58;;;;;;;17.42;62.76;92882.38;5072862;28;20211;-78
2021/10/03 07:01:04;;;;;;;1.90;1.35;;;;;;;17.44;62.44;92881.06;5073216;28;20207;-78
2021/10/03 07:03:30;;;;;;;3.45;1.75;;;;;;;17.42;64.48;92888.47;5073256;28;20657;-77
2021/10/03 07:05:58;;;;;;;1.98;1.20;;;;;;;17.47;64.12;92887.66;5073004;28;20675;-77
2021/10/03 07:08:25;;;;;;;2.38;1.50;;;;;;;17.52;63.39;92898.19;5073161;28;20230;-78
2021/10/03 07:10:51;;;;;;;5.10;1.58;;;;;;;17.59;63.91;92906.66;5073041;28;20199;-78
2021/10/03 07:13:18;;;;;;;4.70;1.30;;;;;;;17.70;60.98;92915.34;5072961;28;20213;-78
2021/10/03 07:15:44;;;;;;;1.58;1.27;;;;;;;17.79;62.47;92913.00;5072942;28;20210;-78
2021/10/03 07:18:11;;;;;;;2.78;1.40;;;;;;;17.94;60.14;92900.56;5073081;28;20204;-77
2021/10/03 07:20:38;;;;;;;2.47;1.08;;;;;;;18.06;59.15;92902.91;5072794;28;20206;-77
2021/10/03 07:23:06;;;;;;;1.48;1.00;;;;;;;18.15;59.86;92899.72;5072697;28;20238;-76
2021/10/03 07:25:32;;;;;;;2.00;1.25;;;;;;;18.11;62.30;92888.91;5073202;28;20203;-76
2021/10/03 07:27:59;;;;;;;2.03;1.20;;;;;;;18.33;59.88;92895.72;5072911;28;20226;-76
2021/10/03 07:30:25;;;;;;;3.33;1.20;;;;;;;18.53;58.57;92882.41;5072885;28;20202;-77
2021/10/03 07:32:52;;;;;;;1.88;1.30;;;;;;;18.55;60.10;92882.13;5072711;28;20203;-76
2021/10/03 07:35:18;;;;;;;2.20;1.48;;;;;;;18.37;62.88;92880.88;5072636;28;20561;-77
2021/10/03 07:37:45;;;;;;;2.22;1.48;;;;;;;18.43;61.61;92882.44;5073090;28;20215;-77
2021/10/03 07:40:13;;;;;;;1.48;1.15;;;;;;;18.49;63.55;92879.50;5077059;28;20206;-76
2021/10/03 07:42:42;;;;;;;1.98;1.33;;;;;;;18.59;59.33;92873.38;5077175;28;20202;-76
2021/10/03 07:45:10;;;;;;;1.95;1.30;;;;;;;18.67;59.71;92872.81;5076997;28;20198;-76
2021/10/03 07:47:36;;;;;;;2.50;1.25;;;;;;;18.66;60.83;92888.94;5076632;28;20226;-77
2021/10/03 07:50:03;;;;;;;1.77;1.30;;;;;;;18.58;59.94;92892.94;5076845;28;20202;-77
2021/10/03 07:52:30;;;;;;;2.28;1.13;;;;;;;18.54;58.79;92897.22;5076718;28;20203;-76
2021/10/03 07:54:56;;;;;;;1.33;0.90;;;;;;;18.77;59.59;92895.78;5076706;28;20198;-77
2021/10/03 07:57:24;;;;;;;1.10;0.93;;;;;;;18.96;57.50;92888.00;5076502;28;20209;-77
2021/10/03 07:59:51;;;;;;;1.38;1.10;;;;;;;19.07;58.11;92893.22;5076459;28;20662;-77
2021/10/03 08:02:17;;;;;;;1.35;1.00;;;;;;;19.20;58.29;92887.31;5076343;28;20344;-77
2021/10/03 08:04:44;;;;;;;2.92;1.10;;;;;;;19.35;56.35;92899.66;5076635;28;20207;-78
2021/10/03 08:07:10;;;;;;;1.40;0.90;;;;;;;19.44;58.27;92890.06;5076301;28;20202;-77
2021/10/03 08:09:37;;;;;;;2.38;1.17;;;;;;;19.48;55.43;92899.03;5076471;28;20198;-78
2021/10/03 08:12:04;;;;;;;0.65;0.60;;;;;;;19.57;56.86;92900.00;5076345;28;20208;-77
2021/10/03 08:14:31;;;;;;;1.02;0.80;;;;;;;19.58;56.26;92895.50;5075268;28;20206;-76
2021/10/03 08:16:58;;;;;;;1.40;1.00;;;;;;;19.58;56.52;92904.25;5076028;28;20206;-77
2021/10/03 08:19:24;;;;;;;1.27;0.90;;;;;;;19.60;55.34;92909.25;5076247;28;20199;-77
2021/10/03 08:21:51;;;;;;;1.48;1.00;;;;;;;19.62;56.67;92916.91;5076020;28;20562;-77
2021/10/03 08:24:17;;;;;;;1.55;0.95;;;;;;;19.62;54.85;92916.91;5076221;28;20202;-77
2021/10/03 08:26:44;;;;;;;1.55;0.82;;;;;;;19.49;55.60;92913.84;5076151;28;20578;-76
2021/10/03 08:29:10;;;;;;;1.10;1.00;;;;;;;19.37;56.52;92914.22;5075819;28;20226;-76
2021/10/03 08:31:38;;;;;;;2.15;1.52;;;;;;;19.25;59.17;92912.97;5076197;28;20210;-77
2021/10/03 08:34:05;;;;;;;4.38;1.05;;;;;;;19.28;57.62;92910.56;5076000;28;20199;-77
2021/10/03 08:36:31;;;;;;;1.20;0.88;;;;;;;19.36;55.51;92909.97;5075867;28;20195;-76
2021/10/03 08:38:57;;;;;;;1.33;0.80;;;;;;;19.38;56.20;92920.28;5075788;28;20206;-77
2021/10/03 08:41:24;;;;;;;2.10;1.00;;;;;;;19.33;57.35;92915.81;5075638;28;20257;-77
2021/10/03 08:43:53;;;;;;;1.10;0.82;;;;;;;19.42;56.10;92911.53;5074583;28;20434;-77
2021/10/03 08:46:23;;;;;;;1.35;0.80;;;;;;;19.42;57.43;92913.38;5075627;28;20549;-77
2021/10/03 08:48:51;;;;;;;1.42;1.00;;;;;;;19.39;59.32;92895.41;5075472;28;20230;-77
2021/10/03 08:51:18;;;;;;;1.48;1.05;;;;;;;19.37;59.47;92897.53;5074928;28;20596;-77
2021/10/03 08:53:44;;;;;;;2.35;0.98;;;;;;;19.67;58.15;92904.44;5075450;28;20575;-77
2021/10/03 08:56:11;;;;;;;3.55;0.90;;;;;;;19.87;56.17;92913.31;5075266;28;20209;-78
2021/10/03 08:58:38;;;;;;;1.80;1.00;;;;;;;19.92;58.25;92900.78;5075472;28;20554;-77
2021/10/03 09:01:05;;;;;;;3.08;0.98;;;;;;;19.98;56.91;92906.03;5075134;28;20543;-78
2021/10/03 09:03:32;;;;;;;1.17;0.90;;;;;;;20.07;55.68;92910.47;5075417;28;20245;-77
2021/10/03 09:06:02;;;;;;;2.28;1.02;;;;;;;20.23;57.36;92908.41;5075312;28;20199;-78
2021/10/03 09:08:30;;;;;;;1.30;1.10;;;;;;;20.43;55.45;92901.31;5075068;28;20796;-77
2021/10/03 09:10:58;;;;;;;1.13;1.00;;;;;;;20.44;53.93;92909.00;5075039;28;20646;-77
2021/10/03 09:13:46;;;;;;;1.25;0.90;;;;;;;20.38;54.61;92907.47;5075016;28;20556;-77
2021/10/03 09:16:14;;;;;;;2.92;0.77;;;;;;;20.56;55.57;92905.94;5075185;28;20206;-78
2021/10/03 09:18:44;;;;;;;1.30;0.90;;;;;;;20.74;55.02;92911.59;5075026;28;20198;-78
2021/10/03 09:21:14;;;;;;;3.10;0.90;;;;;;;20.69;56.65;92905.25;5074795;28;20305;-77
2021/10/03 09:23:41;;;;;;;1.25;0.75;;;;;;;20.80;55.61;92892.69;5075125;28;20194;-78
2021/10/03 09:26:14;;;;;;;1.60;1.02;;;;;;;20.91;54.88;92901.28;5075001;28;20201;-78
2021/10/03 09:28:40;;;;;;;1.13;0.80;;;;;;;20.62;53.98;92899.50;5074863;28;20592;-78
2021/10/03 09:31:09;;;;;;;2.50;0.90;;;;;;;20.68;53.64;92893.09;5074903;28;20202;-78
2021/10/03 09:33:43;;;;;;;2.42;0.90;;;;;;;20.68;53.17;92893.09;5074737;28;20199;-76
2021/10/03 09:36:12;;;;;;;1.80;1.00;;;;;;;20.55;53.05;92883.16;5074580;28;20198;-77
2021/10/03 09:38:45;;;;;;;1.20;1.10;;;;;;;20.53;54.60;92895.88;5074836;28;20211;-77
2021/10/03 09:41:12;;;;;;;1.80;0.90;;;;;;;20.49;57.02;92885.06;5074699;28;20194;-79
2021/10/03 09:43:41;;;;;;;1.80;1.15;;;;;;;20.42;57.66;92892.59;5074495;28;20717;-78
2021/10/03 09:46:08;;;;;;;1.30;0.98;;;;;;;20.49;55.68;92882.41;5074664;28;20209;-76
2021/10/03 09:48:50;;;;;;;3.72;1.10;;;;;;;20.60;56.42;92896.34;5074154;28;20226;-76
2021/10/03 09:51:18;;;;;;;1.38;0.90;;;;;;;20.74;54.96;92890.38;5072393;28;20199;-77
2021/10/03 09:53:45;;;;;;;2.95;0.80;;;;;;;20.60;57.43;92904.31;5074498;28;20223;-76
2021/10/03 09:56:13;;;;;;;1.10;0.80;;;;;;;20.44;56.39;92894.94;5074056;28;20198;-77
2021/10/03 09:58:40;;;;;;;0.88;0.80;;;;;;;20.33;59.96;92899.56;5074304;28;20280;-76
2021/10/03 10:01:07;;;;;;;1.15;0.98;;;;;;;20.34;56.97;92903.81;5073284;28;20710;-76
2021/10/03 10:03:36;;;;;;;1.67;0.85;;;;;;;20.17;57.63;92909.56;5074002;28;20194;-76
2021/10/03 10:06:03;;;;;;;4.95;1.30;;;;;;;20.05;59.67;92906.50;5073479;28;20198;-79
2021/10/03 10:08:31;;;;;;;1.42;1.20;;;;;;;20.20;57.96;92911.66;5074132;28;20226;-76
2021/10/03 10:11:04;;;;;;;1.58;1.00;;;;;;;20.24;56.37;92894.09;5073893;28;20210;-76
2021/10/03 10:13:34;;;;;;;4.75;1.10;;;;;;;20.38;56.68;92901.38;5073853;28;20535;-77
2021/10/03 10:16:30;;;;;;;1.25;1.13;;;;;;;20.39;56.98;92884.41;5073325;28;20214;-78
2021/10/03 10:19:32;;;;;;;2.40;1.50;;;;;;;20.50;56.23;92894.59;5070896;28;20438;-77
2021/10/03 10:22:34;;;;;;;2.00;1.10;;;;;;;20.48;56.86;92902.06;5073440;28;20325;-77
2021/10/03 10:25:18;;;;;;;1.25;1.13;;;;;;;20.46;56.41;92895.44;5062900;28;20202;-77
2021/10/03 10:28:07;;;;;;;1.50;1.13;;;;;;;20.39;55.57;92897.66;5073632;28;20198;-77
2021/10/03 10:30:38;;;;;;;2.03;1.30;;;;;;;20.40;53.67;92896.56;5073676;28;20198;-77
2021/10/03 10:33:15;;;;;;;1.40;1.10;;;;;;;20.34;56.98;92883.38;5073693;28;20199;-78
2021/10/03 10:35:44;;;;;;;1.10;1.00;;;;;;;20.23;57.18;92892.50;5073654;28;20209;-78
2021/10/03 10:38:18;;;;;;;3.10;1.40;;;;;;;20.04;58.04;92912.88;5073438;28;20234;-77
2021/10/03 10:40:46;;;;;;;1.48;1.10;;;;;;;19.82;61.96;92898.25;5073612;28;20214;-76
2021/10/03 10:43:46;;;;;;;1.80;1.40;;;;;;;19.57;59.98;92892.06;5073461;28;20199;-76
2021/10/03 10:46:44;;;;;;;3.92;1.10;;;;;;;19.57;60.36;92899.25;5073499;28;20206;-77
2021/10/03 10:49:29;;;;;;;4.15;1.30;;;;;;;19.69;57.63;92885.63;5073258;28;20283;-76
2021/10/03 10:52:34;;;;;;;2.20;1.05;;;;;;;19.74;60.28;92894.31;5073363;28;20209;-77
2021/10/03 10:55:34;;;;;;;2.15;1.20;;;;;;;19.85;61.36;92902.19;5073166;28;20209;-77
2021/10/03 10:58:20;;;;;;;1.73;1.05;;;;;;;19.94;61.63;92901.31;5073326;28;20327;-76
2021/10/03 11:01:11;;;;;;;2.03;1.00;;;;;;;20.22;57.88;92908.72;5073148;28;20203;-76
2021/10/03 11:04:13;;;;;;;1.90;1.10;;;;;;;20.79;51.71;92909.66;5073413;28;20218;-76
2021/10/03 11:07:01;;;;;;;3.75;1.17;;;;;;;21.09;55.32;92899.72;5073266;28;20556;-77
2021/10/03 11:09:30;;;;;;;2.58;1.08;;;;;;;21.34;54.86;92893.22;5072959;28;20226;-78
2021/10/03 11:12:02;;;;;;;2.17;1.05;;;;;;;21.56;55.57;92892.66;5072926;28;20289;-76
2021/10/03 11:14:30;;;;;;;2.20;1.10;;;;;;;21.97;51.71;92877.88;5072833;28;20201;-77
2021/10/03 11:17:03;;;;;;;1.27;0.90;;;;;;;21.92;52.81;92873.44;5073139;28;20562;-75
2021/10/03 11:19:35;;;;;;;1.55;0.90;;;;;;;22.16;51.81;92870.59;5072861;28;20668;-77
2021/10/03 11:22:04;;;;;;;2.28;0.90;;;;;;;22.15;50.36;92873.59;5072724;28;20593;-76
2021/10/03 11:24:34;;;;;;;1.95;1.00;;;;;;;22.04;52.75;92877.50;5072719;28;20213;-76
2021/10/03 11:27:02;;;;;;;2.97;1.10;;;;;;;21.99;54.33;92873.06;5072909;28;20205;-77
2021/10/03 11:29:36;;;;;;;1.60;1.00;;;;;;;21.86;54.50;92865.84;5072805;28;20234;-77
2021/10/03 11:32:05;;;;;;;1.83;1.00;;;;;;;21.66;58.24;92851.06;5072711;28;20756;-76
2021/10/03 11:34:35;;;;;;;2.97;1.00;;;;;;;21.78;53.39;92856.69;5072735;28;20199;-77
2021/10/03 11:37:03;;;;;;;1.30;1.00;;;;;;;21.71;54.88;92856.28;5072617;28;20794;-77
2021/10/03 11:39:39;;;;;;;4.57;1.00;;;;;;;21.68;52.89;92856.88;5072835;28;20206;-77
2021/10/03 11:42:08;;;;;;;0.70;0.50;;;;;;;21.97;55.09;92852.09;5072647;28;20198;-77